createdAt,value
2022-09-06T00:02:52.489Z,10
2022-09-06T00:08:50.413Z,10
2022-09-06T00:14:49.203Z,10
2022-09-06T00:20:49.276Z,9.8
2022-09-06T00:26:49.531Z,9.7
2022-09-06T00:32:51.284Z,9.7
2022-09-06T00:38:50.528Z,9.4
2022-09-06T00:44:49.175Z,9.8
2022-09-06T00:50:50.766Z,10.6
2022-09-06T00:56:48.944Z,11.2
2022-09-06T01:02:51.950Z,11.4
2022-09-06T01:08:48.916Z,11.4
2022-09-06T01:14:48.572Z,11.4
2022-09-06T01:20:48.675Z,11.4
2022-09-06T01:26:48.561Z,11.4
2022-09-06T01:32:48.711Z,11.4
2022-09-06T01:38:48.793Z,12.7
2022-09-06T01:44:49.817Z,12.8
2022-09-06T01:50:48.764Z,12.8
2022-09-06T01:56:48.635Z,12.9
2022-09-06T02:02:48.883Z,12.9
2022-09-06T02:08:49.133Z,13.1
2022-09-06T02:14:48.926Z,13
2022-09-06T02:20:49.515Z,13.1
2022-09-06T02:26:49.565Z,13.1
2022-09-06T02:32:50.770Z,13.1
2022-09-06T02:38:49.227Z,12.9
2022-09-06T02:44:51.410Z,12.8
2022-09-06T02:50:50.468Z,12.8
2022-09-06T02:56:52.406Z,12.8
2022-09-06T03:02:50.729Z,12.7
2022-09-06T03:08:49.835Z,12.7
2022-09-06T03:14:54.745Z,12.6
2022-09-06T03:20:53.066Z,12.5
2022-09-06T03:26:49.206Z,12.5
2022-09-06T03:32:50.577Z,12.5
2022-09-06T03:38:50.245Z,12.3
2022-09-06T03:44:49.255Z,12.2
2022-09-06T03:50:51.206Z,12.1
2022-09-06T03:56:49.753Z,11.9
2022-09-06T04:02:49.633Z,11.9
2022-09-06T04:08:49.188Z,11.8
2022-09-06T04:14:49.045Z,11.8
2022-09-06T04:20:49.220Z,11.7
2022-09-06T04:26:49.338Z,11.7
2022-09-06T04:32:49.714Z,11.7
2022-09-06T04:38:49.451Z,11.6
2022-09-06T04:44:51.393Z,11.6
2022-09-06T04:50:49.340Z,11.7
2022-09-06T04:56:51.952Z,11.7
2022-09-06T05:02:50.457Z,11.7
2022-09-06T05:08:50.685Z,11.7
2022-09-06T05:14:50.253Z,11.7
2022-09-06T05:20:49.154Z,11.7
2022-09-06T05:26:50.330Z,11.8
2022-09-06T05:32:49.367Z,11.8
2022-09-06T05:38:50.638Z,11.7
2022-09-06T05:44:49.929Z,11.8
2022-09-06T05:50:50.747Z,11.7
2022-09-06T05:56:49.515Z,11.7
2022-09-06T06:02:50.367Z,11.7
2022-09-06T06:08:49.566Z,11.7
2022-09-06T06:14:49.248Z,11.7
2022-09-06T06:20:50.630Z,11.7
2022-09-06T06:26:51.014Z,11.8
2022-09-06T06:32:49.826Z,11.7
2022-09-06T06:38:49.120Z,11.8
2022-09-06T06:44:50.625Z,11.5
2022-09-06T06:50:49.497Z,11.7
2022-09-06T06:56:50.780Z,11.8
2022-09-06T07:02:49.825Z,11.7
2022-09-06T07:08:48.992Z,11.6
2022-09-06T07:14:49.553Z,11.8
2022-09-06T07:32:49.351Z,11.7
2022-09-06T07:38:49.817Z,11.9
2022-09-06T07:44:49.807Z,12
2022-09-06T07:50:50.184Z,12.2
2022-09-06T07:56:49.087Z,12.2
2022-09-06T08:02:49.489Z,12.2
2022-09-06T08:14:49.965Z,12.2
2022-09-06T08:20:50.070Z,12.3
2022-09-06T08:26:49.569Z,12.3
2022-09-06T08:32:49.477Z,11.9
2022-09-06T08:38:49.744Z,11.5
2022-09-06T08:44:57.547Z,11.8
2022-09-06T08:50:49.007Z,11.6
2022-09-06T08:56:48.758Z,11.6
2022-09-06T09:02:48.960Z,11.5
2022-09-06T09:08:49.020Z,11.6
2022-09-06T09:14:49.586Z,11.8
2022-09-06T09:20:49.837Z,12.1
2022-09-06T09:26:49.142Z,11.7
2022-09-06T09:32:48.967Z,11.7
2022-09-06T09:38:49.006Z,11.6
2022-09-06T09:44:49.308Z,11.7
2022-09-06T09:50:48.783Z,11.7
2022-09-06T09:56:50.474Z,11.7
2022-09-06T10:02:49.297Z,11.9
2022-09-06T10:08:49.470Z,12
2022-09-06T10:14:49.016Z,11.8
2022-09-06T10:20:48.961Z,12
2022-09-06T10:26:48.741Z,11.7
2022-09-06T10:32:48.734Z,11.7
2022-09-06T10:38:48.823Z,12.1
2022-09-06T10:44:48.772Z,11.8
2022-09-06T10:50:49.397Z,11.8
2022-09-06T10:56:49.359Z,11.9
2022-09-06T11:02:49.014Z,12.1
2022-09-06T11:08:51.216Z,11.5
2022-09-06T11:14:48.877Z,11.5
2022-09-06T11:20:48.912Z,12
2022-09-06T11:26:48.796Z,12
2022-09-06T11:32:49.217Z,11.9
2022-09-06T11:38:48.927Z,12.3
2022-09-06T11:44:48.946Z,12
2022-09-06T11:50:48.801Z,12.1
2022-09-06T11:56:48.866Z,12.1
2022-09-06T12:02:48.998Z,12.4
2022-09-06T12:08:48.723Z,12.3
2022-09-06T12:14:48.863Z,12.3
2022-09-06T12:20:48.708Z,12.2
2022-09-06T12:26:53.135Z,12.3
2022-09-06T12:32:48.866Z,11.9
2022-09-06T12:38:49.331Z,12.1
2022-09-06T12:44:49.477Z,12.3
2022-09-06T12:50:49.038Z,12.3
2022-09-06T12:56:49.643Z,12.3
2022-09-06T13:02:49.144Z,12.5
2022-09-06T13:08:49.160Z,11.9
2022-09-06T13:14:49.980Z,12.5
2022-09-06T13:20:49.547Z,13.2
2022-09-06T13:26:49.920Z,12.8
2022-09-06T13:32:49.566Z,12.5
2022-09-06T13:38:49.077Z,12.6
2022-09-06T13:44:50.374Z,11.2
2022-09-06T13:50:49.590Z,10.8
2022-09-06T13:56:49.172Z,11.3
2022-09-06T14:02:49.377Z,11.4
2022-09-06T14:09:06.280Z,12.1
2022-09-06T14:14:49.701Z,12.1
2022-09-06T14:20:49.093Z,11.3
2022-09-06T14:26:49.607Z,11.9
2022-09-06T14:32:49.185Z,11.7
2022-09-06T14:38:49.274Z,12.1
2022-09-06T14:44:49.860Z,11.5
2022-09-06T14:50:49.073Z,11.7
2022-09-06T14:56:50.108Z,11.9
2022-09-06T15:02:49.409Z,12
2022-09-06T15:08:49.625Z,12.1
2022-09-06T15:14:49.157Z,11.9
2022-09-06T15:20:49.916Z,12.6
2022-09-06T15:26:49.501Z,12.3
2022-09-06T15:32:49.163Z,12.7
2022-09-06T15:38:49.216Z,12.6
2022-09-06T15:44:51.291Z,12.8
2022-09-06T15:50:51.858Z,12.7
2022-09-06T15:56:49.933Z,13.6
2022-09-06T16:02:51.498Z,11.9
2022-09-06T16:08:50.295Z,12.8
2022-09-06T16:14:50.021Z,12.5
2022-09-06T16:20:49.097Z,12.4
2022-09-06T16:26:50.906Z,12.9
2022-09-06T16:32:50.183Z,12.5
2022-09-06T16:38:50.012Z,12.9
2022-09-06T16:44:49.802Z,12.1
2022-09-06T16:50:49.540Z,11.9
2022-09-06T16:56:49.179Z,11.6
2022-09-06T17:02:50.496Z,11.9
2022-09-06T17:08:51.055Z,12
2022-09-06T17:14:49.789Z,11.3
2022-09-06T17:20:50.786Z,11
2022-09-06T17:26:50.202Z,11
2022-09-06T17:32:50.188Z,11
2022-09-06T17:38:52.983Z,11.1
2022-09-06T17:44:49.581Z,11.1
2022-09-06T17:50:50.380Z,11
2022-09-06T17:56:51.482Z,10.9
2022-09-06T18:02:50.059Z,10.9
2022-09-06T18:08:49.355Z,10.9
2022-09-06T18:14:49.212Z,10.9
2022-09-06T18:20:49.328Z,10.9
2022-09-06T18:26:50.853Z,10.9
2022-09-06T18:32:52.395Z,11
2022-09-06T18:38:50.472Z,11
2022-09-06T18:44:49.940Z,11
2022-09-06T18:50:55.807Z,11.1
2022-09-06T18:56:49.533Z,11.2
2022-09-06T19:02:50.141Z,11
2022-09-06T19:08:51.333Z,11.3
2022-09-06T19:14:52.801Z,11.3
2022-09-06T19:20:50.381Z,11.4
2022-09-06T19:26:49.796Z,11.5
2022-09-06T19:32:50.232Z,11.5
2022-09-06T19:39:05.737Z,11.5
2022-09-06T19:44:49.121Z,11.4
2022-09-06T19:50:50.698Z,11.3
2022-09-06T19:56:49.655Z,11.2
2022-09-06T20:02:49.594Z,11.2
2022-09-06T20:08:50.197Z,11.2
2022-09-06T20:14:50.105Z,11.2
2022-09-06T20:20:50.763Z,11.2
2022-09-06T20:26:50.449Z,11.2
2022-09-06T20:32:51.008Z,11.2
2022-09-06T20:38:49.633Z,11.4
2022-09-06T20:44:49.840Z,12.8
2022-09-06T20:50:49.118Z,13.7
2022-09-06T20:56:50.981Z,13.1
2022-09-06T21:02:50.366Z,13
2022-09-06T21:08:50.134Z,13.2
2022-09-06T21:14:49.366Z,13.5
2022-09-06T21:20:49.170Z,14.4
2022-09-06T21:26:51.191Z,14.9
2022-09-06T21:32:49.854Z,14.9
2022-09-06T21:38:50.409Z,15
2022-09-06T21:44:50.163Z,15.1
2022-09-06T21:50:49.786Z,15.1
2022-09-06T21:56:49.645Z,14.8
2022-09-06T22:02:49.153Z,14.9
2022-09-06T22:08:49.312Z,14.8
2022-09-06T22:14:50.215Z,14.2
2022-09-06T22:20:49.669Z,13.9
2022-09-06T22:26:49.520Z,14.2
2022-09-06T22:32:49.670Z,14.2
2022-09-06T22:38:50.477Z,14.3
2022-09-06T22:44:49.834Z,14.2
2022-09-06T22:50:51.372Z,14.2
2022-09-06T22:56:49.565Z,14.2
2022-09-06T23:02:49.415Z,13.9
2022-09-06T23:08:49.830Z,13.7
2022-09-06T23:14:49.162Z,13.9
2022-09-06T23:20:49.151Z,14.1
2022-09-06T23:26:49.507Z,13.9
2022-09-06T23:32:51.509Z,13.6
2022-09-06T23:38:49.353Z,12.6
2022-09-06T23:44:49.868Z,13.2
2022-09-06T23:50:50.300Z,13.4
2022-09-06T23:56:50.550Z,13.8
